Elk Ranch, Arkansas
Current Conditions -  °F | °C
As of 1:57 AM on Saturday 25 Oct 2014 (Local Time) from KROG Reporting Station
Clear Clear  
Wind Chill: 62°   Ceiling: Unl
Heat Index: 62°   Visibility: 10mi
Dew Point: 58°   Wind: 8mph
Humidity: 86%   Direction: 200°SSW
Pressure: 30.09"   Gusts: NA
Location:  36.4036°N, 93.7443°W
Report Text: KROG 250657Z AUTO 20007KT 10SM CLR 17/14 A3009 RMK AO2 SLP178 T01670144
Loading
Personal Weather Stations






























Interactive Weather Map
Tropical Storm Tracking
New forecast layout! Learn more

10-Day Weather Forecast

Advertisements
Track Severe Weather on mobile